createdAt,value
2018-04-20T00:02:12.453Z,25.70
2018-04-20T00:04:39.909Z,25.70
2018-04-20T00:07:07.351Z,25.70
2018-04-20T00:09:35.575Z,25.50
2018-04-20T00:12:03.786Z,25.40
2018-04-20T00:14:31.258Z,25.40
2018-04-20T00:16:59.477Z,25.40
2018-04-20T00:19:26.928Z,25.40
2018-04-20T00:21:54.376Z,25.40
2018-04-20T00:24:21.832Z,25.30
2018-04-20T00:26:49.275Z,25.20
2018-04-20T00:29:17.505Z,25.10
2018-04-20T00:31:44.942Z,25.10
2018-04-20T00:34:12.395Z,25.10
2018-04-20T00:36:39.853Z,25.00
2018-04-20T00:39:07.294Z,25.00
2018-04-20T00:41:34.777Z,25.00
2018-04-20T00:44:02.224Z,24.90
2018-04-20T00:46:29.679Z,24.90
2018-04-20T00:48:57.145Z,24.90
2018-04-20T00:51:24.600Z,24.80
2018-04-20T00:54:03.644Z,24.80
2018-04-20T00:56:31.112Z,24.80
2018-04-20T00:58:58.565Z,24.80
2018-04-20T01:01:26.776Z,24.80
2018-04-20T01:03:54.996Z,24.70
2018-04-20T01:06:22.452Z,24.70
2018-04-20T01:08:49.916Z,24.70
2018-04-20T01:11:17.369Z,24.60
2018-04-20T01:13:45.579Z,24.60
2018-04-20T01:16:13.044Z,24.60
2018-04-20T01:18:40.492Z,24.60
2018-04-20T01:21:07.948Z,24.60
2018-04-20T01:23:35.400Z,24.60
2018-04-20T01:26:02.859Z,24.50
2018-04-20T01:28:30.320Z,24.50
2018-04-20T01:30:57.775Z,24.50
2018-04-20T01:33:25.239Z,24.50
2018-04-20T01:35:52.689Z,24.50
2018-04-20T01:38:20.903Z,24.30
2018-04-20T01:40:49.122Z,24.30
2018-04-20T01:43:16.566Z,24.30
2018-04-20T01:45:44.019Z,24.30
2018-04-20T01:48:11.480Z,24.20
2018-04-20T01:50:39.702Z,24.20
2018-04-20T01:53:07.146Z,24.20
2018-04-20T01:55:34.660Z,24.20
2018-04-20T01:58:02.980Z,24.20
2018-04-20T02:00:30.426Z,24.10
2018-04-20T02:02:57.883Z,24.10
2018-04-20T02:05:25.327Z,24.10
2018-04-20T02:07:52.792Z,24.00
2018-04-20T02:10:20.245Z,24.00
2018-04-20T02:12:47.711Z,24.00
2018-04-20T02:15:15.160Z,24.00
2018-04-20T02:17:42.618Z,24.00
2018-04-20T02:20:10.068Z,23.90
2018-04-20T02:22:37.529Z,23.80
2018-04-20T02:25:04.988Z,23.80
2018-04-20T02:27:32.439Z,23.80
2018-04-20T02:30:00.657Z,23.80
2018-04-20T02:32:28.108Z,23.80
2018-04-20T02:34:55.553Z,23.70
2018-04-20T02:37:23.004Z,23.70
2018-04-20T02:39:50.452Z,23.70
2018-04-20T02:42:17.912Z,23.60
2018-04-20T02:44:45.368Z,23.60
2018-04-20T02:47:12.824Z,23.50
2018-04-20T02:49:40.273Z,23.50
2018-04-20T02:52:07.732Z,23.50
2018-04-20T02:54:35.174Z,23.40
2018-04-20T02:57:02.634Z,23.40
2018-04-20T02:59:30.067Z,23.40
2018-04-20T03:01:58.289Z,23.30
2018-04-20T03:04:25.728Z,23.30
2018-04-20T03:06:53.180Z,23.30
2018-04-20T03:09:20.631Z,23.20
2018-04-20T03:11:48.100Z,23.20
2018-04-20T03:14:15.570Z,23.20
2018-04-20T03:16:43.032Z,23.30
2018-04-20T03:19:10.480Z,23.20
2018-04-20T03:21:37.939Z,23.20
2018-04-20T03:24:05.400Z,23.10
2018-04-20T03:26:32.856Z,23.10
2018-04-20T03:29:00.308Z,23.10
2018-04-20T03:31:27.752Z,23.10
2018-04-20T03:33:55.204Z,23.10
2018-04-20T03:36:22.659Z,23.10
2018-04-20T03:38:50.875Z,23.00
2018-04-20T03:41:18.328Z,23.00
2018-04-20T03:43:45.784Z,23.00
2018-04-20T03:46:13.240Z,23.00
2018-04-20T03:48:40.684Z,23.00
2018-04-20T03:51:08.132Z,23.00
2018-04-20T03:53:35.579Z,23.00
2018-04-20T03:56:03.029Z,23.00
2018-04-20T03:58:31.252Z,22.90
2018-04-20T04:00:58.714Z,22.90
2018-04-20T04:03:26.184Z,22.80
2018-04-20T04:05:53.627Z,22.90
2018-04-20T04:08:21.087Z,22.80
2018-04-20T04:10:48.602Z,22.90
2018-04-20T04:13:15.995Z,22.90
2018-04-20T04:15:43.444Z,22.80
2018-04-20T04:18:22.724Z,22.80
2018-04-20T04:21:04.741Z,22.90
2018-04-20T04:23:44.788Z,22.70
2018-04-20T04:26:24.741Z,22.70
2018-04-20T04:28:53.775Z,22.80
2018-04-20T04:31:21.232Z,22.70
2018-04-20T04:33:48.697Z,22.80
2018-04-20T04:36:16.152Z,22.70
2018-04-20T04:38:43.598Z,22.70
2018-04-20T04:41:11.049Z,22.80
2018-04-20T04:43:38.498Z,22.80
2018-04-20T04:46:05.952Z,22.80
2018-04-20T04:48:33.399Z,22.80
2018-04-20T04:51:00.852Z,22.80
2018-04-20T04:53:28.291Z,22.80
2018-04-20T04:55:56.512Z,22.80
2018-04-20T04:58:23.972Z,22.70
2018-04-20T05:00:51.423Z,22.80
2018-04-20T05:03:18.880Z,22.90
2018-04-20T05:05:46.335Z,22.80
2018-04-20T05:08:13.789Z,22.80
2018-04-20T05:10:41.251Z,22.80
2018-04-20T05:13:08.697Z,22.90
2018-04-20T05:15:36.147Z,22.90
2018-04-20T05:18:03.595Z,22.90
2018-04-20T05:20:31.866Z,22.90
2018-04-20T05:22:59.263Z,22.90
2018-04-20T05:25:26.744Z,22.90
2018-04-20T05:27:54.175Z,22.80
2018-04-20T05:30:21.636Z,22.80
2018-04-20T05:32:49.101Z,22.80
2018-04-20T05:35:16.548Z,22.90
2018-04-20T05:37:44.006Z,22.80
2018-04-20T05:40:11.471Z,22.80
2018-04-20T05:42:38.930Z,22.90
2018-04-20T05:45:06.413Z,22.90
2018-04-20T05:47:33.880Z,22.90
2018-04-20T05:50:01.339Z,23.00
2018-04-20T05:52:28.801Z,23.00
2018-04-20T05:54:57.032Z,23.00
2018-04-20T05:57:24.487Z,22.90
2018-04-20T05:59:53.869Z,23.00
2018-04-20T06:02:22.107Z,23.00
2018-04-20T06:04:49.552Z,23.00
2018-04-20T06:07:17.760Z,23.00
2018-04-20T06:09:45.228Z,23.00
2018-04-20T06:12:13.440Z,23.10
2018-04-20T06:14:40.903Z,23.10
2018-04-20T06:17:08.355Z,23.10
2018-04-20T06:19:35.835Z,23.00
2018-04-20T06:22:03.284Z,23.10
2018-04-20T06:24:30.736Z,23.10
2018-04-20T06:26:58.200Z,23.10
2018-04-20T06:29:25.672Z,23.20
2018-04-20T06:31:53.117Z,23.20
2018-04-20T06:34:20.576Z,23.10
2018-04-20T06:36:48.025Z,23.20
2018-04-20T06:39:15.479Z,23.30
2018-04-20T06:41:42.939Z,23.20
2018-04-20T06:44:10.384Z,23.40
2018-04-20T06:46:37.835Z,23.30
2018-04-20T06:49:05.300Z,23.20
2018-04-20T06:51:32.760Z,23.30
2018-04-20T06:54:00.233Z,23.40
2018-04-20T06:56:27.684Z,23.50
2018-04-20T06:58:55.144Z,23.70
2018-04-20T07:01:22.593Z,23.80
2018-04-20T07:03:50.060Z,24.00
2018-04-20T07:06:17.512Z,24.20
2018-04-20T07:08:44.973Z,24.30
2018-04-20T07:11:12.444Z,24.40
2018-04-20T07:13:39.896Z,24.50
2018-04-20T07:16:07.360Z,24.70
2018-04-20T07:18:34.938Z,24.80
2018-04-20T07:21:02.429Z,25.00
2018-04-20T07:23:29.909Z,25.10
2018-04-20T07:25:58.213Z,25.40
2018-04-20T07:28:25.673Z,25.30
2018-04-20T07:30:53.125Z,25.50
2018-04-20T07:33:20.589Z,25.70
2018-04-20T07:35:48.051Z,25.80
2018-04-20T07:38:16.293Z,26.10
2018-04-20T07:40:43.749Z,26.00
2018-04-20T07:43:11.956Z,26.40
2018-04-20T07:45:39.432Z,26.40
2018-04-20T07:48:07.651Z,26.70
2018-04-20T07:50:35.111Z,26.70
2018-04-20T07:53:02.560Z,26.90
2018-04-20T07:55:30.004Z,27.10
2018-04-20T07:57:57.448Z,27.30
2018-04-20T08:00:25.692Z,27.70
2018-04-20T08:02:53.117Z,27.60
2018-04-20T08:05:20.581Z,27.80
2018-04-20T08:07:48.037Z,28.00
2018-04-20T08:10:15.496Z,28.20
2018-04-20T08:12:42.951Z,28.40
2018-04-20T08:15:10.401Z,28.50
2018-04-20T08:17:37.853Z,28.70
2018-04-20T08:20:05.323Z,28.80
2018-04-20T08:22:32.764Z,29.00
2018-04-20T08:25:00.228Z,29.20
2018-04-20T08:27:27.684Z,29.40
2018-04-20T08:29:55.124Z,29.60
2018-04-20T08:32:22.585Z,29.70
2018-04-20T08:34:50.052Z,29.90
2018-04-20T08:37:17.512Z,30.00
2018-04-20T08:39:44.976Z,30.10
2018-04-20T08:42:12.440Z,30.30
2018-04-20T08:44:39.887Z,30.60
2018-04-20T08:47:07.343Z,30.70
2018-04-20T08:49:34.803Z,31.00
2018-04-20T08:52:02.313Z,31.10
2018-04-20T08:54:30.536Z,31.50
2018-04-20T08:56:58.033Z,31.50
2018-04-20T08:59:25.468Z,31.80
2018-04-20T09:01:53.700Z,32.30
2018-04-20T09:04:21.154Z,32.20
2018-04-20T09:06:49.372Z,32.60
2018-04-20T09:09:16.816Z,32.60
2018-04-20T09:11:44.281Z,32.80
2018-04-20T09:14:11.722Z,32.90
2018-04-20T09:16:39.168Z,33.00
2018-04-20T09:19:06.621Z,33.30
2018-04-20T09:21:34.081Z,33.40
2018-04-20T09:24:01.520Z,33.70
2018-04-20T09:26:29.760Z,34.00
2018-04-20T09:28:57.212Z,34.00
2018-04-20T09:31:24.666Z,34.20
2018-04-20T09:33:52.112Z,34.40
2018-04-20T09:36:19.564Z,34.70
2018-04-20T09:38:47.017Z,34.90
2018-04-20T09:41:14.472Z,35.20
2018-04-20T09:43:41.953Z,35.40
2018-04-20T09:46:09.421Z,35.60
2018-04-20T09:48:36.865Z,35.90
2018-04-20T09:51:04.324Z,36.10
2018-04-20T09:53:31.776Z,36.20
2018-04-20T09:55:59.252Z,36.50
2018-04-20T09:58:26.708Z,36.60
2018-04-20T10:01:09.055Z,36.80
2018-04-20T10:03:43.016Z,37.10
2018-04-20T10:06:10.484Z,37.20
2018-04-20T10:08:37.930Z,37.40
2018-04-20T10:11:05.379Z,37.60
2018-04-20T10:13:32.832Z,37.80
2018-04-20T10:16:01.060Z,38.20
2018-04-20T10:18:28.515Z,38.20
2018-04-20T10:20:55.956Z,38.40
2018-04-20T10:23:23.643Z,38.60
2018-04-20T10:25:51.861Z,39.00
2018-04-20T10:28:19.323Z,38.90
2018-04-20T10:30:46.778Z,39.20
2018-04-20T10:33:14.253Z,39.40
2018-04-20T10:35:41.718Z,39.60
2018-04-20T10:38:09.185Z,39.60
2018-04-20T10:40:36.645Z,39.70
2018-04-20T10:43:04.104Z,40.00
2018-04-20T10:45:31.555Z,40.20
2018-04-20T10:47:59.012Z,40.30
2018-04-20T10:50:26.477Z,40.00
2018-04-20T10:52:53.936Z,39.90
2018-04-20T10:55:21.393Z,38.80
2018-04-20T10:57:48.845Z,38.90
2018-04-20T11:00:16.297Z,39.50
2018-04-20T11:02:43.768Z,39.10
2018-04-20T11:05:11.221Z,38.40
2018-04-20T11:07:38.675Z,37.70
2018-04-20T11:10:06.132Z,38.80
2018-04-20T11:12:33.583Z,39.40
2018-04-20T11:15:01.037Z,38.50
2018-04-20T11:17:28.507Z,39.20
2018-04-20T11:19:55.956Z,37.60
2018-04-20T11:22:23.417Z,36.10
2018-04-20T11:24:50.879Z,36.50
2018-04-20T11:27:18.336Z,36.90
2018-04-20T11:29:45.793Z,36.00
2018-04-20T11:32:13.252Z,35.90
2018-04-20T11:34:40.700Z,38.10
2018-04-20T11:37:08.162Z,37.40
2018-04-20T11:39:35.624Z,36.40
2018-04-20T11:42:03.083Z,35.10
2018-04-20T11:44:30.555Z,35.20
2018-04-20T11:46:58.029Z,35.30
2018-04-20T11:49:25.521Z,35.10
2018-04-20T11:51:52.936Z,34.90
2018-04-20T11:54:20.397Z,34.70
2018-04-20T11:56:48.608Z,33.60
2018-04-20T11:59:16.089Z,33.50
2018-04-20T12:01:43.548Z,33.60
2018-04-20T12:04:11.014Z,33.30
2018-04-20T12:06:38.468Z,32.80
2018-04-20T12:09:05.928Z,33.00
2018-04-20T12:11:33.387Z,32.90
2018-04-20T12:14:00.848Z,33.40
2018-04-20T12:16:28.312Z,33.00
2018-04-20T12:18:55.770Z,32.70
2018-04-20T12:21:23.264Z,33.20
2018-04-20T12:23:51.476Z,33.30
2018-04-20T12:26:18.956Z,33.30
2018-04-20T12:28:46.420Z,33.30
2018-04-20T12:31:13.880Z,33.00
2018-04-20T12:33:41.400Z,33.40
2018-04-20T12:36:08.833Z,33.70
2018-04-20T12:38:36.300Z,33.40
2018-04-20T12:41:03.764Z,33.80
2018-04-20T12:43:31.228Z,34.00
2018-04-20T12:45:58.684Z,34.10
2018-04-20T12:48:26.159Z,34.30
2018-04-20T12:50:53.614Z,34.40
2018-04-20T12:53:21.099Z,34.10
2018-04-20T12:55:48.548Z,33.20
2018-04-20T12:58:16.787Z,33.30
2018-04-20T13:00:44.240Z,33.30
2018-04-20T13:03:11.692Z,33.40
2018-04-20T13:05:39.148Z,33.20
2018-04-20T13:08:06.658Z,33.40
2018-04-20T13:10:34.066Z,33.00
2018-04-20T13:13:01.525Z,33.50
2018-04-20T13:15:28.986Z,33.00
2018-04-20T13:17:56.441Z,32.60
2018-04-20T13:20:23.900Z,32.00
2018-04-20T13:22:51.400Z,30.80
2018-04-20T13:25:18.867Z,31.10
2018-04-20T13:27:47.094Z,30.90
2018-04-20T13:30:14.561Z,30.90
2018-04-20T13:32:42.008Z,31.60
2018-04-20T13:35:09.468Z,30.80
2018-04-20T13:37:36.920Z,30.50
2018-04-20T13:40:04.376Z,30.30
2018-04-20T13:42:31.831Z,30.90
2018-04-20T13:44:59.292Z,30.30
2018-04-20T13:47:26.750Z,29.90
2018-04-20T13:49:54.204Z,29.90
2018-04-20T13:52:21.660Z,30.20
2018-04-20T13:54:49.124Z,30.50
2018-04-20T13:57:16.616Z,30.30
2018-04-20T13:59:44.083Z,30.50
2018-04-20T14:02:11.524Z,30.80
2018-04-20T14:04:38.976Z,29.80
2018-04-20T14:07:06.428Z,29.70
2018-04-20T14:09:33.901Z,30.30
2018-04-20T14:12:01.358Z,30.30
2018-04-20T14:14:28.832Z,30.10
2018-04-20T14:16:56.291Z,29.70
2018-04-20T14:19:23.739Z,29.90
2018-04-20T14:21:51.199Z,29.90
2018-04-20T14:24:18.798Z,29.80
2018-04-20T14:26:46.257Z,29.90
2018-04-20T14:29:13.740Z,29.40
2018-04-20T14:31:41.208Z,29.40
2018-04-20T14:34:08.680Z,29.20
2018-04-20T14:36:36.143Z,29.10
2018-04-20T14:39:03.601Z,28.30
2018-04-20T14:41:31.059Z,28.40
2018-04-20T14:43:58.611Z,28.30
2018-04-20T14:46:25.969Z,28.90
2018-04-20T14:48:53.433Z,28.50
2018-04-20T14:51:20.884Z,29.10
2018-04-20T14:53:48.353Z,28.70
2018-04-20T14:56:15.810Z,29.00
2018-04-20T14:58:43.251Z,28.40
2018-04-20T15:01:10.716Z,28.40
2018-04-20T15:03:38.212Z,28.80
2018-04-20T15:06:05.706Z,28.30
2018-04-20T15:08:33.160Z,28.60
2018-04-20T15:11:00.730Z,28.80
2018-04-20T15:13:28.965Z,28.10
2018-04-20T15:15:57.187Z,28.40
2018-04-20T15:18:24.681Z,28.40
2018-04-20T15:20:52.155Z,28.60
2018-04-20T15:23:19.607Z,29.00
2018-04-20T15:25:47.829Z,29.00
2018-04-20T15:28:15.296Z,29.00
2018-04-20T15:30:42.752Z,29.20
2018-04-20T15:33:10.333Z,29.20
2018-04-20T15:35:37.792Z,28.90
2018-04-20T15:38:05.244Z,28.60
2018-04-20T15:40:32.700Z,28.60
2018-04-20T15:43:00.156Z,28.20
2018-04-20T15:45:27.624Z,28.50
2018-04-20T15:47:55.089Z,28.00
2018-04-20T15:50:22.542Z,28.20
2018-04-20T15:52:49.996Z,27.80
2018-04-20T15:55:18.229Z,28.00
2018-04-20T15:57:45.681Z,27.90
2018-04-20T16:00:13.141Z,28.10
2018-04-20T16:02:40.597Z,28.20
2018-04-20T16:05:08.150Z,27.80
2018-04-20T16:07:35.597Z,27.90
2018-04-20T16:10:03.887Z,28.00
2018-04-20T16:12:31.317Z,28.00
2018-04-20T16:14:59.544Z,27.90
2018-04-20T16:17:27.000Z,27.90
2018-04-20T16:19:54.478Z,27.50
2018-04-20T16:22:21.942Z,27.80
2018-04-20T16:24:49.431Z,27.80
2018-04-20T16:27:16.919Z,27.80
2018-04-20T16:29:44.376Z,27.60
2018-04-20T16:32:11.828Z,27.70
2018-04-20T16:34:39.312Z,27.60
2018-04-20T16:37:06.833Z,27.80
2018-04-20T16:39:34.280Z,27.90
2018-04-20T16:42:01.752Z,27.80
2018-04-20T16:44:29.200Z,27.40
2018-04-20T16:46:56.661Z,27.50
2018-04-20T16:49:24.112Z,27.50
2018-04-20T16:51:51.569Z,27.60
2018-04-20T16:54:19.794Z,27.60
2018-04-20T16:56:47.264Z,27.60
2018-04-20T16:59:14.723Z,27.40
2018-04-20T17:01:42.189Z,27.50
2018-04-20T17:04:09.637Z,27.40
2018-04-20T17:06:37.100Z,27.30
2018-04-20T17:09:04.553Z,27.50
2018-04-20T17:11:32.012Z,27.40
2018-04-20T17:13:59.476Z,27.20
2018-04-20T17:16:26.938Z,27.10
2018-04-20T17:18:54.392Z,27.30
2018-04-20T17:21:21.855Z,27.30
2018-04-20T17:23:49.299Z,27.30
2018-04-20T17:26:16.773Z,27.30
2018-04-20T17:28:44.988Z,27.20
2018-04-20T17:31:12.455Z,27.20
2018-04-20T17:33:39.916Z,27.10
2018-04-20T17:36:07.376Z,27.10
2018-04-20T17:38:34.825Z,27.10
2018-04-20T17:41:02.373Z,26.90
2018-04-20T17:43:29.826Z,27.00
2018-04-20T17:45:57.311Z,27.00
2018-04-20T17:48:24.770Z,26.90
2018-04-20T17:50:52.228Z,26.80
2018-04-20T17:53:19.684Z,26.90
2018-04-20T17:55:47.167Z,26.90
2018-04-20T17:58:15.380Z,26.80
2018-04-20T18:00:42.844Z,26.80
2018-04-20T18:03:10.306Z,26.80
2018-04-20T18:05:37.775Z,26.60
2018-04-20T18:08:05.227Z,26.50
2018-04-20T18:10:32.687Z,26.50
2018-04-20T18:13:00.145Z,26.40
2018-04-20T18:15:27.605Z,26.40
2018-04-20T18:17:55.061Z,26.30
2018-04-20T18:20:22.516Z,26.20
2018-04-20T18:22:49.976Z,26.10
2018-04-20T18:25:17.432Z,25.80
2018-04-20T18:27:44.896Z,25.90
2018-04-20T18:30:12.345Z,25.90
2018-04-20T18:32:39.804Z,25.70
2018-04-20T18:35:07.263Z,25.60
2018-04-20T18:37:35.490Z,25.30
2018-04-20T18:40:02.969Z,25.30
2018-04-20T18:42:31.313Z,25.20
2018-04-20T18:44:58.782Z,25.20
2018-04-20T18:47:26.237Z,25.00
2018-04-20T18:49:54.464Z,24.60
2018-04-20T18:52:21.924Z,24.60
2018-04-20T18:54:49.381Z,24.60
2018-04-20T18:57:16.846Z,24.50
2018-04-20T18:59:44.291Z,24.20
2018-04-20T19:02:11.756Z,23.90
2018-04-20T19:04:39.225Z,23.80
2018-04-20T19:07:06.685Z,23.80
2018-04-20T19:09:34.180Z,23.70
2018-04-20T19:12:01.652Z,23.40
2018-04-20T19:14:29.867Z,23.50
2018-04-20T19:16:57.341Z,23.40
2018-04-20T19:19:24.803Z,23.60
2018-04-20T19:21:52.312Z,24.00
2018-04-20T19:24:19.772Z,24.10
2018-04-20T19:26:47.224Z,24.00
2018-04-20T19:29:14.680Z,24.20
2018-04-20T19:31:42.139Z,24.20
2018-04-20T19:34:09.593Z,24.10
2018-04-20T19:36:37.114Z,23.70
2018-04-20T19:39:04.531Z,24.10
2018-04-20T19:41:31.996Z,23.60
2018-04-20T19:44:00.497Z,23.50
2018-04-20T19:46:27.958Z,23.30
2018-04-20T19:48:55.410Z,23.60
2018-04-20T19:51:22.860Z,23.80
2018-04-20T19:53:50.327Z,23.80
2018-04-20T19:56:17.778Z,23.60
2018-04-20T19:58:45.249Z,23.60
2018-04-20T20:01:12.699Z,23.80
2018-04-20T20:03:40.161Z,23.50
2018-04-20T20:06:07.608Z,23.50
2018-04-20T20:08:35.072Z,23.20
2018-04-20T20:11:02.524Z,22.80
2018-04-20T20:13:29.987Z,23.00
2018-04-20T20:15:57.454Z,23.70
2018-04-20T20:18:24.921Z,24.70
2018-04-20T20:20:53.470Z,25.40
2018-04-20T20:23:22.391Z,26.30
2018-04-20T20:25:49.929Z,26.30
2018-04-20T20:28:19.303Z,26.60
2018-04-20T20:30:48.082Z,26.70
2018-04-20T20:33:16.801Z,27.10
2018-04-20T20:35:44.726Z,27.10
2018-04-20T20:38:14.384Z,27.40
2018-04-20T20:40:44.005Z,27.50
2018-04-20T20:43:12.165Z,27.50
2018-04-20T20:45:41.235Z,27.70
2018-04-20T20:48:10.178Z,27.80
2018-04-20T20:50:38.429Z,27.80
2018-04-20T20:53:05.926Z,27.80
2018-04-20T20:55:34.128Z,27.80
2018-04-20T20:58:01.627Z,27.70
2018-04-20T21:00:29.946Z,27.80
2018-04-20T21:02:57.405Z,27.80
2018-04-20T21:05:24.944Z,27.90
2018-04-20T21:07:52.404Z,27.80
2018-04-20T21:10:20.084Z,27.80
2018-04-20T21:12:48.320Z,27.80
2018-04-20T21:15:15.769Z,27.80
2018-04-20T21:17:43.701Z,27.80
2018-04-20T21:20:11.533Z,27.70
2018-04-20T21:22:38.989Z,27.70
2018-04-20T21:25:06.719Z,27.70
2018-04-20T21:27:34.172Z,27.60
2018-04-20T21:30:01.726Z,27.60
2018-04-20T21:32:29.983Z,27.70
2018-04-20T21:34:57.540Z,27.70
2018-04-20T21:37:25.244Z,27.70
2018-04-20T21:39:52.690Z,27.80
2018-04-20T21:42:20.144Z,27.70
2018-04-20T21:44:47.623Z,27.80
2018-04-20T21:47:15.491Z,27.80
2018-04-20T21:49:43.028Z,27.80
2018-04-20T21:52:10.873Z,27.80
2018-04-20T21:54:38.425Z,27.90
2018-04-20T21:57:05.875Z,27.90
2018-04-20T21:59:34.131Z,27.90
2018-04-20T22:02:01.581Z,27.90
2018-04-20T22:04:29.056Z,27.90
2018-04-20T22:06:56.503Z,27.80
2018-04-20T22:09:23.968Z,27.80
2018-04-20T22:11:52.193Z,27.80
2018-04-20T22:14:19.654Z,27.80
2018-04-20T22:16:47.106Z,27.80
2018-04-20T22:19:14.568Z,27.80
2018-04-20T22:21:42.025Z,27.80
2018-04-20T22:24:09.483Z,27.80
2018-04-20T22:26:36.939Z,27.70
2018-04-20T22:29:04.400Z,27.80
2018-04-20T22:31:31.848Z,27.80
2018-04-20T22:33:59.356Z,27.80
2018-04-20T22:36:26.808Z,27.80
2018-04-20T22:38:54.272Z,27.80
2018-04-20T22:41:21.724Z,27.80
2018-04-20T22:43:49.192Z,27.80
2018-04-20T22:46:16.640Z,27.70
2018-04-20T22:48:44.104Z,27.70
2018-04-20T22:51:11.557Z,27.70
2018-04-20T22:53:39.024Z,27.70
2018-04-20T22:56:06.524Z,27.70
2018-04-20T22:58:34.707Z,27.70
2018-04-20T23:01:02.162Z,27.70
2018-04-20T23:03:29.631Z,27.70
2018-04-20T23:05:57.086Z,27.70
2018-04-20T23:08:24.548Z,27.70
2018-04-20T23:10:52.897Z,27.70
2018-04-20T23:13:21.140Z,27.70
2018-04-20T23:15:49.364Z,27.70
2018-04-20T23:18:16.864Z,27.60
2018-04-20T23:20:44.332Z,27.60
2018-04-20T23:23:11.788Z,27.70
2018-04-20T23:25:39.248Z,27.60
2018-04-20T23:28:07.481Z,27.60
2018-04-20T23:30:34.956Z,27.60
2018-04-20T23:33:02.427Z,27.60
2018-04-20T23:35:29.884Z,27.60
2018-04-20T23:37:57.329Z,27.60
2018-04-20T23:40:25.557Z,27.60
2018-04-20T23:42:53.007Z,27.60
2018-04-20T23:45:20.473Z,27.50
2018-04-20T23:47:47.928Z,27.50
2018-04-20T23:50:15.382Z,27.50
2018-04-20T23:52:42.838Z,27.60
2018-04-20T23:55:11.061Z,27.50
2018-04-20T23:57:38.512Z,27.50
